Hlavní strana
METAR-TAF:

METAR-TAF

Letiště :

Berbérati, Středoafrická republika

zeměpisná šířka: 04-15N, zeměpisná délka: 015-48E, výška: 582 m

Aktuální stav počasí

Zpráva byla vytvořena před 3 hodinami a 55 minutami, v 10:00 UTC
Západoseverozápadní vítr 2 kt
Teplota 28°C
Vlhkost vzduchu 79%
Tlak 1015 hPa
Viditelnost 10 km a více
Oblačno až skoro zataženo ve výšce 2300 ft

METAR: FEFT 241000Z 30002KT 9999 BKN023 28/24 Q1015

Čas: 14:55 (13:55 UTC)


TAF: chybějící

Stav a předpovědi počasí z více než 4 000 letišť (zprávy METAR a TAF).

Červené a žluté tečky na mapě představují dostupné meteorologické stanice.

Když kurzor umístíte na tečku, zobrazí se název stanice.

Pak kliknutím zobrazíte stav a předpověď počasí.

Chcete-li změnit mapu, kliknutím na zelené tlačítko se znaménkem +mapu přiblížíte, kliknutím na zelené tlačítko se znaménkem – mapu oddálíte a kliknutím na zelené šipky přejdete na sousední mapy.


METAR-TAF: